Time;durP1;ratioP1;P1;durP2;ratioP2;P2;SDS_P1;SDS_P2;PMS_P1;PMS_P2;Temp;Humidity;BMP_temperature;BMP_pressure;BME280_temperature;BME280_humidity;BME280_pressure;Samples;Min_cycle;Max_cycle;Signal;HPM_P1;HPM_P2
2021/12/18 00:01:31;;;;;;;21.40;17.35;;;4.80;99.90;;;;;;5033644;28;20474;-73
2021/12/18 00:03:57;;;;;;;20.20;16.50;;;4.90;99.90;;;;;;5033634;28;20022;-74
2021/12/18 00:06:27;;;;;;;18.35;15.73;;;4.90;99.90;;;;;;5033616;28;20024;-75
2021/12/18 00:08:53;;;;;;;22.83;16.48;;;5.00;99.90;;;;;;5032036;28;20379;-75
2021/12/18 00:11:19;;;;;;;20.73;17.15;;;5.00;99.90;;;;;;5033409;28;20025;-74
2021/12/18 00:13:44;;;;;;;22.13;16.05;;;5.00;99.90;;;;;;5032244;28;20048;-74
2021/12/18 00:16:10;;;;;;;20.75;16.45;;;5.00;99.90;;;;;;5032342;28;20034;-74
2021/12/18 00:18:36;;;;;;;19.60;17.45;;;5.00;99.90;;;;;;5032865;28;20092;-75
2021/12/18 00:21:03;;;;;;;18.70;15.55;;;5.00;99.90;;;;;;5032828;28;20410;-74
2021/12/18 00:23:28;;;;;;;20.05;17.08;;;5.00;99.90;;;;;;5032149;28;20625;-74
2021/12/18 00:25:54;;;;;;;21.98;16.98;;;5.10;99.90;;;;;;5034188;28;20100;-74
2021/12/18 00:28:20;;;;;;;22.15;17.10;;;5.10;99.90;;;;;;5032791;28;20048;-74
2021/12/18 00:30:45;;;;;;;22.95;18.25;;;5.10;99.90;;;;;;5033144;28;20108;-75
2021/12/18 00:33:11;;;;;;;19.48;17.05;;;5.10;99.90;;;;;;5033411;28;20022;-75
2021/12/18 00:35:37;;;;;;;21.30;16.52;;;5.10;99.90;;;;;;5032068;28;20037;-74
2021/12/18 00:38:04;;;;;;;20.40;16.80;;;5.00;99.90;;;;;;5033181;28;20025;-75
2021/12/18 00:40:43;;;;;;;20.02;16.80;;;5.10;99.90;;;;;;5032122;28;20391;-74
2021/12/18 00:45:47;;;;;;;19.67;16.70;;;5.00;99.90;;;;;;5045559;28;20040;-74
2021/12/18 00:48:13;;;;;;;21.58;17.25;;;5.00;99.90;;;;;;5056286;28;20069;-74
2021/12/18 00:50:38;;;;;;;20.15;16.65;;;5.00;99.90;;;;;;5055840;28;20021;-73
2021/12/18 00:53:04;;;;;;;22.50;17.02;;;4.90;99.90;;;;;;5055927;28;20056;-73
2021/12/18 00:55:29;;;;;;;22.10;17.27;;;4.90;99.90;;;;;;5058844;28;20021;-74
2021/12/18 00:57:55;;;;;;;22.00;17.33;;;4.80;99.90;;;;;;5056328;28;20030;-74
2021/12/18 01:00:24;;;;;;;19.05;15.82;;;4.90;99.90;;;;;;5052628;28;20013;-74
2021/12/18 01:02:52;;;;;;;20.85;17.30;;;4.80;99.90;;;;;;5031249;28;20029;-73
2021/12/18 01:05:18;;;;;;;20.73;16.17;;;4.80;99.90;;;;;;5027984;28;20021;-74
2021/12/18 01:07:44;;;;;;;20.27;16.92;;;4.80;99.90;;;;;;5028643;28;20029;-74
2021/12/18 01:12:43;;;;;;;21.85;17.48;;;4.70;99.90;;;;;;5032438;28;20040;-75
2021/12/18 01:15:32;;;;;;;21.52;16.45;;;4.70;99.90;;;;;;5030890;28;20436;-74
2021/12/18 01:23:28;;;;;;;21.35;17.52;;;4.40;99.90;;;;;;5024280;28;20032;-75
2021/12/18 01:25:55;;;;;;;20.02;16.33;;;4.40;99.90;;;;;;5030067;28;20025;-73
2021/12/18 01:28:21;;;;;;;23.88;17.38;;;4.50;99.90;;;;;;5029272;28;20053;-74
2021/12/18 01:30:47;;;;;;;21.58;17.48;;;4.40;99.90;;;;;;5032818;28;20045;-74
2021/12/18 01:33:13;;;;;;;22.45;17.98;;;4.50;99.90;;;;;;5029510;28;20022;-74
2021/12/18 01:35:39;;;;;;;21.08;17.33;;;4.50;99.90;;;;;;5030268;28;20033;-75
2021/12/18 01:38:04;;;;;;;20.40;17.58;;;4.50;99.90;;;;;;5024569;28;20043;-75
2021/12/18 01:40:30;;;;;;;20.30;16.58;;;4.50;99.90;;;;;;5029793;28;20018;-74
2021/12/18 01:51:17;;;;;;;19.85;17.55;;;4.50;99.90;;;;;;5027899;28;20140;-74
2021/12/18 01:53:48;;;;;;;22.85;18.52;;;4.50;99.90;;;;;;5030131;28;20025;-75
2021/12/18 01:56:14;;;;;;;23.27;18.75;;;4.50;99.90;;;;;;5029838;28;20037;-75
2021/12/18 01:58:40;;;;;;;21.80;16.23;;;4.50;99.90;;;;;;5031055;28;20489;-74
2021/12/18 02:01:06;;;;;;;19.02;15.88;;;4.60;99.90;;;;;;5030240;28;20472;-75
2021/12/18 02:03:33;;;;;;;18.73;15.85;;;4.60;99.90;;;;;;5031384;28;20022;-75
2021/12/18 02:05:58;;;;;;;23.17;17.00;;;4.60;99.90;;;;;;5030563;28;20030;-75
2021/12/18 02:08:26;;;;;;;22.42;17.92;;;4.60;99.90;;;;;;5030556;28;20075;-74
2021/12/18 02:11:22;;;;;;;20.75;14.95;;;4.50;99.90;;;;;;5029963;28;20029;-74
2021/12/18 02:14:22;;;;;;;20.10;15.43;;;4.50;99.90;;;;;;5030081;28;20388;-74
2021/12/18 02:21:59;;;;;;;21.50;16.60;;;4.50;99.90;;;;;;5030400;28;20033;-78
2021/12/18 02:24:27;;;;;;;23.20;16.23;;;4.50;99.90;;;;;;5024494;28;20060;-78
2021/12/18 02:26:53;;;;;;;20.75;16.27;;;4.30;99.90;;;;;;5030280;28;20133;-77
2021/12/18 02:29:19;;;;;;;18.20;16.10;;;4.20;99.90;;;;;;5030574;28;20501;-78
2021/12/18 02:31:45;;;;;;;18.58;15.68;;;4.30;99.90;;;;;;5032384;28;20032;-77
2021/12/18 02:34:16;;;;;;;18.10;15.95;;;4.40;99.90;;;;;;5032642;28;20029;-78
2021/12/18 02:36:48;;;;;;;20.58;16.77;;;4.30;99.90;;;;;;5030909;28;20025;-78
2021/12/18 02:42:06;;;;;;;18.77;15.77;;;4.40;99.90;;;;;;5032404;28;20108;-77
2021/12/18 02:44:32;;;;;;;20.13;16.35;;;4.40;99.90;;;;;;5028406;28;20017;-76
2021/12/18 02:46:58;;;;;;;18.08;15.25;;;4.40;99.90;;;;;;5030102;28;20030;-76
2021/12/18 02:49:25;;;;;;;18.80;15.65;;;4.40;99.90;;;;;;5029830;28;20031;-75
2021/12/18 02:51:50;;;;;;;19.95;15.93;;;4.40;99.90;;;;;;5031312;28;20027;-75
2021/12/18 02:54:16;;;;;;;21.00;16.92;;;4.40;99.90;;;;;;5031831;28;20101;-76
2021/12/18 02:56:41;;;;;;;20.80;16.50;;;4.30;99.90;;;;;;5029871;28;20029;-75
2021/12/18 02:59:09;;;;;;;21.00;16.52;;;4.40;99.90;;;;;;5031090;28;20029;-75
2021/12/18 03:01:37;;;;;;;20.40;15.80;;;4.40;99.90;;;;;;5029199;28;20052;-78
2021/12/18 03:04:13;;;;;;;22.83;17.10;;;4.30;99.90;;;;;;5029195;28;20026;-76
2021/12/18 03:06:43;;;;;;;23.38;17.58;;;4.30;99.90;;;;;;5032745;28;20014;-79
2021/12/18 03:27:33;;;;;;;23.65;16.42;;;4.10;99.90;;;;;;5028013;28;20087;-75
2021/12/18 03:29:58;;;;;;;21.08;16.38;;;4.00;99.90;;;;;;5034122;28;20025;-76
2021/12/18 03:32:25;;;;;;;21.48;16.35;;;4.00;99.90;;;;;;5030154;28;20084;-75
2021/12/18 03:34:52;;;;;;;23.40;18.27;;;4.00;99.90;;;;;;5026458;28;20026;-76
2021/12/18 03:37:19;;;;;;;22.08;16.30;;;4.10;99.90;;;;;;5028345;28;20022;-76
2021/12/18 03:39:46;;;;;;;22.55;16.55;;;4.00;99.90;;;;;;5024340;28;20026;-76
2021/12/18 03:42:13;;;;;;;22.48;16.73;;;4.00;99.90;;;;;;5027790;28;20025;-76
2021/12/18 03:44:39;;;;;;;23.90;16.55;;;3.90;99.90;;;;;;5027957;28;20496;-77
2021/12/18 03:47:05;;;;;;;21.40;15.40;;;3.90;99.90;;;;;;5029019;28;20033;-74
2021/12/18 03:49:31;;;;;;;24.25;15.82;;;3.90;99.90;;;;;;5027688;28;20068;-75
2021/12/18 03:51:57;;;;;;;23.13;16.75;;;3.90;99.90;;;;;;5026327;28;20490;-75
2021/12/18 03:54:22;;;;;;;20.45;15.27;;;3.80;99.90;;;;;;5025760;28;20022;-75
2021/12/18 03:56:48;;;;;;;25.15;16.65;;;3.80;99.90;;;;;;5039918;28;20028;-75
2021/12/18 03:59:13;;;;;;;20.92;14.90;;;3.80;99.90;;;;;;5027940;28;20075;-75
2021/12/18 04:01:39;;;;;;;23.63;16.55;;;3.80;99.90;;;;;;5029708;28;20013;-76
2021/12/18 04:04:05;;;;;;;21.27;15.38;;;3.80;99.90;;;;;;5033580;28;20486;-75
2021/12/18 04:06:31;;;;;;;24.02;16.13;;;3.70;99.90;;;;;;5033565;28;20432;-76
2021/12/18 04:08:58;;;;;;;21.55;15.05;;;3.70;99.90;;;;;;5032867;28;20026;-76
2021/12/18 04:11:24;;;;;;;22.83;16.92;;;3.70;99.90;;;;;;5025668;28;20025;-75
2021/12/18 04:13:49;;;;;;;22.92;15.95;;;3.70;99.90;;;;;;5032834;28;20026;-76
2021/12/18 04:16:15;;;;;;;39.75;19.80;;;3.60;99.90;;;;;;5025271;28;20028;-77
2021/12/18 04:18:41;;;;;;;22.45;15.60;;;3.70;99.90;;;;;;5026815;28;20018;-74
2021/12/18 04:21:07;;;;;;;22.95;16.88;;;3.50;99.90;;;;;;5026470;28;20520;-74
2021/12/18 04:23:33;;;;;;;21.27;16.30;;;3.70;99.90;;;;;;5025860;28;20470;-74
2021/12/18 04:25:58;;;;;;;22.67;15.93;;;3.70;99.90;;;;;;5028481;28;20033;-75
2021/12/18 04:28:24;;;;;;;22.92;15.93;;;3.70;99.90;;;;;;5027238;28;20028;-75
2021/12/18 04:30:50;;;;;;;25.05;17.38;;;3.60;99.90;;;;;;5025209;28;20071;-75
2021/12/18 04:33:16;;;;;;;24.00;16.08;;;3.60;99.90;;;;;;5027064;28;20460;-75
2021/12/18 04:35:42;;;;;;;21.35;16.13;;;3.80;99.90;;;;;;5028393;28;20501;-75
2021/12/18 04:38:08;;;;;;;23.88;16.67;;;3.90;99.90;;;;;;5025369;28;20053;-74
2021/12/18 04:40:35;;;;;;;23.08;17.35;;;3.90;99.90;;;;;;5022909;28;20474;-76
2021/12/18 04:43:01;;;;;;;23.42;15.80;;;3.80;99.90;;;;;;5026269;28;20025;-75
2021/12/18 04:45:27;;;;;;;22.13;15.85;;;3.80;99.90;;;;;;5024118;28;20029;-75
2021/12/18 04:47:53;;;;;;;23.20;16.33;;;3.80;99.90;;;;;;5026730;28;20055;-75
2021/12/18 04:50:19;;;;;;;24.77;16.13;;;3.60;99.90;;;;;;5026120;28;20029;-75
2021/12/18 04:52:45;;;;;;;23.75;16.65;;;3.50;99.90;;;;;;5024001;28;20035;-74
2021/12/18 04:55:11;;;;;;;25.52;17.02;;;3.50;99.90;;;;;;5026775;28;20021;-76
2021/12/18 04:57:37;;;;;;;21.90;15.32;;;3.40;99.90;;;;;;5024792;28;20033;-76
2021/12/18 05:00:05;;;;;;;23.38;17.35;;;3.60;99.90;;;;;;5028266;28;20064;-75
2021/12/18 05:02:38;;;;;;;24.58;15.98;;;3.60;99.90;;;;;;5026186;28;20102;-75
2021/12/18 05:05:05;;;;;;;23.75;16.40;;;3.50;99.90;;;;;;5025338;28;20381;-75
2021/12/18 05:07:31;;;;;;;17.92;13.65;;;3.60;99.90;;;;;;5022952;28;20018;-76
2021/12/18 05:09:57;;;;;;;16.35;11.95;;;3.80;99.90;;;;;;5024678;28;20025;-75
2021/12/18 05:12:22;;;;;;;17.88;12.05;;;3.80;99.90;;;;;;5041556;28;20117;-77
2021/12/18 05:14:48;;;;;;;17.60;12.93;;;3.80;99.90;;;;;;5029708;28;20049;-77
2021/12/18 05:17:13;;;;;;;16.58;12.27;;;3.70;99.90;;;;;;5034833;28;20029;-77
2021/12/18 05:19:39;;;;;;;18.23;12.13;;;3.70;99.90;;;;;;5033402;28;20021;-74
2021/12/18 05:22:05;;;;;;;18.20;10.60;;;3.60;99.90;;;;;;5036061;28;20406;-75
2021/12/18 05:24:30;;;;;;;15.77;11.10;;;3.60;99.90;;;;;;5032206;28;20393;-76
2021/12/18 05:26:56;;;;;;;14.27;10.63;;;3.60;99.90;;;;;;5032160;28;20397;-76
2021/12/18 05:29:22;;;;;;;16.40;12.00;;;3.50;99.90;;;;;;5032482;28;20014;-76
2021/12/18 05:31:48;;;;;;;18.40;12.57;;;3.50;99.90;;;;;;5032145;28;20093;-77
2021/12/18 05:34:21;;;;;;;16.98;11.05;;;3.60;99.90;;;;;;5030657;28;20021;-75
2021/12/18 05:37:14;;;;;;;13.98;10.32;;;3.60;99.90;;;;;;5032260;28;20053;-76
2021/12/18 05:39:36;;;;;;;15.63;11.65;;;3.60;99.90;;;;;;5031870;28;20097;-76
2021/12/18 05:42:02;;;;;;;14.10;10.05;;;3.50;99.90;;;;;;5032026;28;20030;-75
2021/12/18 05:44:27;;;;;;;15.57;11.50;;;3.60;99.90;;;;;;5031945;28;20408;-76
2021/12/18 05:46:54;;;;;;;15.52;11.20;;;3.30;99.90;;;;;;5031105;28;20021;-76
2021/12/18 05:49:20;;;;;;;16.13;11.98;;;3.20;99.90;;;;;;5031702;28;20421;-75
2021/12/18 05:51:46;;;;;;;15.13;11.10;;;3.20;99.90;;;;;;5032317;28;20021;-76
2021/12/18 05:54:13;;;;;;;15.15;11.82;;;3.10;99.90;;;;;;5031754;28;20442;-76
2021/12/18 05:56:39;;;;;;;17.70;11.95;;;3.10;99.90;;;;;;5031634;28;20021;-76
2021/12/18 05:59:04;;;;;;;15.85;12.55;;;3.40;99.90;;;;;;5033014;28;20086;-75
2021/12/18 06:01:30;;;;;;;19.40;12.75;;;3.50;99.90;;;;;;5032877;28;20017;-75
2021/12/18 06:03:56;;;;;;;16.38;12.32;;;3.30;99.90;;;;;;5031281;28;20030;-75
2021/12/18 06:06:22;;;;;;;17.77;12.77;;;3.30;99.90;;;;;;5031895;28;20021;-76
2021/12/18 06:08:48;;;;;;;18.50;12.38;;;3.20;99.90;;;;;;5031665;28;20499;-75
2021/12/18 06:11:16;;;;;;;20.42;13.90;;;3.10;99.90;;;;;;5031653;28;20033;-75
2021/12/18 06:13:43;;;;;;;14.85;11.63;;;3.20;99.90;;;;;;5046978;28;20525;-75
2021/12/18 06:16:09;;;;;;;16.15;12.18;;;3.20;99.90;;;;;;5031719;28;20112;-76
2021/12/18 06:18:40;;;;;;;15.57;11.68;;;3.30;99.90;;;;;;5030132;28;20473;-76
2021/12/18 06:21:05;;;;;;;17.92;13.50;;;3.20;99.90;;;;;;5030136;28;20401;-76
2021/12/18 06:23:31;;;;;;;15.23;11.27;;;3.20;99.90;;;;;;5029669;28;20021;-77
2021/12/18 06:25:57;;;;;;;15.88;11.43;;;3.30;99.90;;;;;;5031179;28;20025;-76
2021/12/18 06:28:23;;;;;;;15.88;11.00;;;3.50;99.90;;;;;;5030337;28;20466;-76
2021/12/18 06:30:49;;;;;;;13.35;11.15;;;3.60;99.90;;;;;;5033432;28;20097;-76
2021/12/18 06:33:16;;;;;;;14.27;11.35;;;3.50;99.90;;;;;;5031881;28;20028;-77
2021/12/18 06:35:41;;;;;;;16.63;12.10;;;3.40;99.90;;;;;;5031069;28;20060;-76
2021/12/18 06:38:07;;;;;;;13.48;10.23;;;3.30;99.90;;;;;;5032689;28;20073;-75
2021/12/18 06:40:32;;;;;;;14.50;11.10;;;3.50;99.90;;;;;;5031359;28;20024;-76
2021/12/18 06:42:58;;;;;;;13.48;11.07;;;3.40;99.90;;;;;;5030597;28;20485;-76
2021/12/18 06:45:24;;;;;;;12.90;9.73;;;3.50;99.90;;;;;;5027718;28;20025;-76
2021/12/18 06:47:50;;;;;;;14.57;10.23;;;3.40;99.90;;;;;;5036199;28;20025;-76
2021/12/18 06:50:15;;;;;;;13.02;9.65;;;3.50;99.90;;;;;;5034131;28;20034;-76
2021/12/18 06:52:41;;;;;;;13.20;9.52;;;3.40;99.90;;;;;;5035173;28;20021;-76
2021/12/18 06:55:07;;;;;;;15.10;10.02;;;3.30;99.90;;;;;;5035132;28;20026;-76
2021/12/18 06:57:33;;;;;;;13.52;9.05;;;3.40;99.90;;;;;;5034742;28;20020;-76
2021/12/18 06:59:59;;;;;;;12.98;8.90;;;3.50;99.90;;;;;;5033325;28;20022;-76
2021/12/18 07:02:24;;;;;;;15.40;10.20;;;3.60;99.90;;;;;;5033742;28;20103;-76
2021/12/18 07:04:51;;;;;;;13.57;10.07;;;3.50;99.90;;;;;;5034793;28;20375;-76
2021/12/18 07:07:16;;;;;;;13.05;9.55;;;3.60;99.90;;;;;;5035141;28;20056;-76
2021/12/18 07:09:42;;;;;;;14.13;9.45;;;3.50;99.90;;;;;;5035171;28;20507;-77
2021/12/18 07:12:10;;;;;;;13.15;9.30;;;3.60;99.90;;;;;;5033419;28;20500;-75
2021/12/18 07:14:36;;;;;;;14.65;9.80;;;3.70;99.90;;;;;;5035114;28;20026;-75
2021/12/18 07:17:02;;;;;;;12.82;9.05;;;3.70;99.90;;;;;;5035004;28;20049;-75
2021/12/18 07:19:27;;;;;;;15.27;9.90;;;3.70;99.90;;;;;;5035160;28;20025;-75
2021/12/18 07:21:53;;;;;;;14.05;9.27;;;3.60;99.90;;;;;;5033196;28;20076;-76
2021/12/18 07:24:18;;;;;;;13.43;9.98;;;3.60;99.90;;;;;;5035986;28;20041;-77
2021/12/18 07:26:44;;;;;;;12.98;9.40;;;3.60;99.90;;;;;;5037123;28;20044;-76
2021/12/18 07:29:09;;;;;;;13.73;9.07;;;3.60;99.90;;;;;;5035100;28;20028;-76
2021/12/18 07:31:35;;;;;;;12.93;9.73;;;3.60;99.90;;;;;;5035363;28;20091;-77
2021/12/18 07:34:00;;;;;;;15.10;10.07;;;3.50;99.90;;;;;;5036761;28;20025;-77
2021/12/18 07:36:26;;;;;;;14.45;10.25;;;3.50;99.90;;;;;;5036858;28;20512;-75
2021/12/18 07:38:51;;;;;;;15.88;9.82;;;3.60;99.90;;;;;;5036670;28;20477;-74
2021/12/18 07:41:17;;;;;;;15.63;10.30;;;3.50;99.90;;;;;;5036955;28;20088;-76
2021/12/18 07:43:43;;;;;;;12.55;8.77;;;3.60;99.90;;;;;;5036270;28;20040;-77
2021/12/18 07:46:08;;;;;;;12.85;9.32;;;3.60;99.90;;;;;;5036122;28;20037;-76
2021/12/18 07:48:34;;;;;;;14.38;8.90;;;3.60;99.90;;;;;;5037302;28;20048;-74
2021/12/18 07:51:00;;;;;;;13.70;9.00;;;3.60;99.90;;;;;;5036034;28;20060;-75
2021/12/18 07:53:25;;;;;;;13.27;9.07;;;3.60;99.90;;;;;;5035155;28;20021;-78
2021/12/18 07:55:51;;;;;;;13.60;10.07;;;3.70;99.90;;;;;;5035884;28;20176;-76
2021/12/18 07:58:17;;;;;;;15.95;10.40;;;3.70;99.90;;;;;;5034264;28;20033;-75
2021/12/18 08:00:43;;;;;;;13.10;8.57;;;3.70;99.90;;;;;;5033344;28;20104;-75
2021/12/18 08:03:08;;;;;;;15.27;9.40;;;3.70;99.90;;;;;;5034775;28;20033;-76
2021/12/18 08:05:34;;;;;;;14.10;9.68;;;3.60;99.90;;;;;;5036351;28;20404;-79
2021/12/18 08:08:00;;;;;;;13.88;10.05;;;3.50;99.90;;;;;;5035647;28;20032;-75
2021/12/18 08:10:25;;;;;;;11.43;8.55;;;3.50;99.90;;;;;;5034464;28;20026;-77
2021/12/18 08:12:51;;;;;;;14.70;9.20;;;3.60;99.90;;;;;;5035992;28;20017;-75
2021/12/18 08:15:16;;;;;;;14.80;8.30;;;3.60;99.90;;;;;;5034138;28;20091;-75
2021/12/18 08:17:42;;;;;;;16.30;12.45;;;3.70;99.90;;;;;;5034545;28;20022;-76
2021/12/18 08:20:09;;;;;;;16.50;9.95;;;3.80;99.90;;;;;;5030546;28;20025;-76
2021/12/18 08:22:35;;;;;;;15.07;9.57;;;3.70;99.90;;;;;;5037054;28;20037;-76
2021/12/18 08:25:01;;;;;;;14.20;8.35;;;3.80;99.90;;;;;;5034952;28;20176;-76
2021/12/18 08:27:27;;;;;;;16.45;10.05;;;3.90;99.90;;;;;;5037061;28;20017;-75
2021/12/18 08:29:53;;;;;;;16.95;9.80;;;3.90;99.90;;;;;;5035800;28;20064;-77
2021/12/18 08:32:19;;;;;;;15.27;10.05;;;4.10;99.90;;;;;;5035969;28;20026;-78
2021/12/18 08:34:45;;;;;;;15.32;9.60;;;4.10;99.90;;;;;;5035075;28;20104;-75
2021/12/18 08:37:10;;;;;;;13.82;10.07;;;4.00;99.90;;;;;;5034419;28;20032;-76
2021/12/18 08:39:36;;;;;;;11.55;8.75;;;4.10;99.90;;;;;;5034462;28;20018;-77
2021/12/18 08:42:04;;;;;;;12.30;7.70;;;4.10;99.90;;;;;;5034404;28;20033;-75
2021/12/18 08:44:31;;;;;;;12.75;9.07;;;4.10;99.90;;;;;;5034854;28;20018;-78
2021/12/18 08:46:57;;;;;;;12.18;9.93;;;3.90;99.90;;;;;;5035323;28;20517;-77
2021/12/18 08:49:24;;;;;;;15.27;10.35;;;3.80;99.90;;;;;;5034488;28;20025;-77
2021/12/18 08:51:49;;;;;;;13.50;8.85;;;3.80;99.90;;;;;;5033817;28;20022;-76
2021/12/18 08:54:15;;;;;;;12.23;9.55;;;3.80;99.90;;;;;;5033987;28;20531;-77
2021/12/18 08:56:40;;;;;;;15.93;9.35;;;4.10;99.90;;;;;;5032278;28;20017;-77
2021/12/18 08:59:06;;;;;;;14.68;9.07;;;4.20;99.90;;;;;;5035405;28;20029;-78
2021/12/18 09:01:32;;;;;;;12.20;8.88;;;4.20;99.90;;;;;;5033113;28;20104;-75
2021/12/18 09:03:57;;;;;;;15.15;10.55;;;3.90;99.90;;;;;;5033931;28;20563;-77
2021/12/18 09:06:23;;;;;;;14.73;10.38;;;3.80;99.90;;;;;;5032297;28;20478;-76
2021/12/18 09:08:52;;;;;;;15.05;10.65;;;3.80;99.90;;;;;;5033971;28;20439;-75
2021/12/18 09:11:18;;;;;;;13.93;9.90;;;3.70;99.90;;;;;;5031967;28;20022;-76
2021/12/18 09:13:43;;;;;;;13.13;9.73;;;4.10;99.90;;;;;;5032388;28;20033;-76
2021/12/18 09:16:09;;;;;;;12.93;10.38;;;4.10;99.90;;;;;;5033268;28;20025;-76
2021/12/18 09:18:35;;;;;;;15.43;10.15;;;4.10;99.90;;;;;;5033041;28;20029;-77
2021/12/18 09:21:01;;;;;;;14.15;9.73;;;4.40;99.90;;;;;;5032915;28;20539;-75
2021/12/18 09:23:26;;;;;;;15.02;10.27;;;4.50;99.90;;;;;;5033126;28;20037;-75
2021/12/18 09:25:52;;;;;;;13.35;9.10;;;4.60;99.90;;;;;;5033091;28;20364;-75
2021/12/18 09:28:18;;;;;;;12.32;8.82;;;4.60;99.90;;;;;;5032539;28;20033;-77
2021/12/18 09:30:43;;;;;;;12.68;9.05;;;4.60;99.90;;;;;;5033248;28;20022;-76
2021/12/18 09:33:12;;;;;;;14.55;9.80;;;4.60;99.90;;;;;;5026550;28;20030;-77
2021/12/18 09:35:37;;;;;;;12.90;10.07;;;4.60;99.90;;;;;;5032427;28;20039;-76
2021/12/18 09:38:03;;;;;;;12.88;9.45;;;4.60;99.90;;;;;;5033169;28;20026;-78
2021/12/18 09:40:29;;;;;;;16.13;10.80;;;4.60;99.90;;;;;;5033418;28;20024;-76
2021/12/18 09:42:56;;;;;;;17.33;10.07;;;4.60;99.90;;;;;;5037496;28;20041;-79
2021/12/18 09:45:22;;;;;;;13.85;10.35;;;4.60;99.90;;;;;;5050389;28;20054;-76
2021/12/18 09:47:48;;;;;;;15.70;11.52;;;4.60;99.90;;;;;;5033052;28;20026;-77
2021/12/18 09:50:15;;;;;;;16.42;10.48;;;4.60;99.90;;;;;;5032200;28;20033;-78
2021/12/18 09:52:41;;;;;;;14.75;10.40;;;4.70;99.90;;;;;;5033321;28;20022;-76
2021/12/18 09:55:08;;;;;;;15.00;10.75;;;4.80;99.90;;;;;;5031998;28;20021;-79
2021/12/18 09:57:37;;;;;;;14.55;11.15;;;4.60;99.90;;;;;;5032956;28;20432;-77
2021/12/18 10:00:07;;;;;;;17.65;11.88;;;4.70;99.90;;;;;;5033016;28;20437;-76
2021/12/18 10:02:32;;;;;;;17.05;11.80;;;4.70;99.90;;;;;;5036266;28;20367;-77
2021/12/18 10:04:58;;;;;;;18.35;10.80;;;4.80;99.90;;;;;;5032542;28;20033;-78
2021/12/18 10:07:26;;;;;;;16.67;11.02;;;4.80;99.90;;;;;;5031749;28;20493;-76
2021/12/18 10:09:56;;;;;;;20.52;11.48;;;4.90;99.90;;;;;;5031369;28;20052;-77
2021/12/18 10:12:25;;;;;;;16.05;11.30;;;4.70;99.90;;;;;;5031785;28;20075;-76
2021/12/18 10:14:54;;;;;;;15.65;10.95;;;4.60;99.90;;;;;;5028706;28;20025;-77
2021/12/18 10:17:22;;;;;;;17.08;12.32;;;4.70;99.90;;;;;;5035066;28;20028;-76
2021/12/18 10:19:50;;;;;;;16.00;10.45;;;4.80;99.90;;;;;;5032721;28;20045;-76
2021/12/18 10:22:15;;;;;;;18.50;11.50;;;4.90;99.90;;;;;;5035409;28;20108;-77
2021/12/18 10:24:43;;;;;;;16.80;10.75;;;4.90;99.90;;;;;;5037108;28;20053;-78
2021/12/18 10:27:23;;;;;;;16.30;10.68;;;4.80;99.90;;;;;;5034091;28;20034;-78
2021/12/18 10:29:51;;;;;;;15.60;11.63;;;4.80;99.90;;;;;;5031456;28;20021;-76
2021/12/18 10:32:23;;;;;;;15.82;11.93;;;4.90;99.90;;;;;;5034854;28;20120;-76
2021/12/18 10:34:57;;;;;;;18.70;12.35;;;5.00;99.90;;;;;;5034120;28;20401;-78
2021/12/18 10:37:26;;;;;;;22.50;11.68;;;5.00;99.90;;;;;;5031587;28;20508;-78
2021/12/18 10:39:56;;;;;;;16.58;12.13;;;4.90;99.90;;;;;;5058204;28;20014;-78
2021/12/18 10:42:39;;;;;;;16.25;11.38;;;4.80;99.90;;;;;;5061594;28;20011;-78
2021/12/18 10:45:13;;;;;;;18.00;10.95;;;4.80;99.90;;;;;;5056059;28;20030;-76
2021/12/18 10:47:57;;;;;;;17.92;11.80;;;5.00;99.90;;;;;;5056570;28;20033;-78
2021/12/18 10:50:43;;;;;;;16.17;10.85;;;5.00;99.90;;;;;;5059747;28;20017;-76
2021/12/18 10:53:14;;;;;;;16.33;12.07;;;5.10;99.90;;;;;;5057219;28;20028;-77
2021/12/18 10:55:44;;;;;;;;;;;5.10;99.90;;;;;;5059142;28;20029;-76
2021/12/18 10:58:14;;;;;;;14.75;10.98;;;4.90;99.90;;;;;;5072880;28;19897;-75
2021/12/18 11:00:46;;;;;;;14.35;10.18;;;4.90;99.90;;;;;;5057947;28;20028;-77
2021/12/18 11:03:17;;;;;;;12.60;10.13;;;5.20;99.90;;;;;;5058701;28;20036;-76
2021/12/18 11:05:42;;;;;;;14.60;10.48;;;5.20;99.90;;;;;;5050130;28;20014;-75
2021/12/18 11:08:11;;;;;;;12.55;9.40;;;5.20;99.90;;;;;;5066009;28;20029;-76
2021/12/18 11:10:53;;;;;;;15.07;11.25;;;5.20;99.90;;;;;;5060170;28;20025;-76
2021/12/18 11:16:05;;;;;;;13.68;10.05;;;4.80;99.90;;;;;;5070926;28;20055;-76
2021/12/18 11:18:33;;;;;;;15.35;10.38;;;4.50;99.90;;;;;;5059682;28;20009;-76
2021/12/18 11:20:59;;;;;;;13.48;10.13;;;4.60;99.90;;;;;;5056425;28;20026;-77
2021/12/18 11:23:46;;;;;;;13.00;10.32;;;4.80;99.90;;;;;;5056930;28;20017;-77
2021/12/18 11:26:13;;;;;;;13.70;9.85;;;4.80;99.90;;;;;;5057134;28;20014;-76
2021/12/18 11:28:44;;;;;;;13.95;10.18;;;5.00;99.90;;;;;;5056224;28;20020;-75
2021/12/18 11:31:11;;;;;;;16.83;10.02;;;5.20;99.90;;;;;;5051049;28;20029;-77
2021/12/18 11:33:38;;;;;;;13.32;9.25;;;5.30;99.90;;;;;;5042908;28;20072;-78
2021/12/18 11:36:05;;;;;;;13.43;9.68;;;5.20;99.90;;;;;;5039935;28;20025;-77
2021/12/18 11:38:32;;;;;;;15.20;9.27;;;5.20;99.90;;;;;;5037919;28;20075;-75
2021/12/18 11:40:59;;;;;;;16.08;10.85;;;5.00;99.90;;;;;;5037941;28;20371;-76
2021/12/18 11:43:37;;;;;;;14.68;10.10;;;4.80;99.90;;;;;;5034029;28;20014;-77
2021/12/18 11:46:34;;;;;;;14.52;9.65;;;4.70;99.90;;;;;;5036504;28;20026;-77
2021/12/18 11:49:22;;;;;;;11.27;8.40;;;4.70;99.90;;;;;;5035430;28;20482;-76
2021/12/18 11:51:59;;;;;;;13.60;9.52;;;4.90;99.90;;;;;;5036925;28;20013;-76
2021/12/18 11:54:39;;;;;;;14.05;9.18;;;5.00;99.90;;;;;;5027935;28;20548;-76
2021/12/18 11:57:05;;;;;;;11.63;9.35;;;5.00;99.90;;;;;;5035637;28;20097;-77
2021/12/18 11:59:42;;;;;;;13.55;9.57;;;4.90;99.90;;;;;;5037020;28;20052;-77
2021/12/18 12:02:11;;;;;;;13.88;9.93;;;5.00;99.90;;;;;;5034428;28;20049;-76
2021/12/18 12:05:03;;;;;;;10.75;8.63;;;5.10;99.90;;;;;;5036587;28;20068;-78
2021/12/18 12:07:29;;;;;;;11.35;8.50;;;5.00;99.90;;;;;;5028244;28;20048;-77
2021/12/18 12:10:12;;;;;;;12.48;8.98;;;5.30;99.90;;;;;;5034271;28;20037;-77
2021/12/18 12:12:53;;;;;;;11.88;8.88;;;5.40;99.90;;;;;;5034112;28;20025;-77
2021/12/18 12:15:22;;;;;;;12.68;9.00;;;5.10;99.90;;;;;;5035582;28;20025;-77
2021/12/18 12:18:01;;;;;;;12.18;8.73;;;4.70;99.90;;;;;;5035583;28;20032;-76
2021/12/18 12:20:42;;;;;;;9.82;7.82;;;4.80;99.90;;;;;;5026140;28;20438;-78
2021/12/18 12:23:10;;;;;;;12.93;9.20;;;5.00;99.90;;;;;;5034512;28;20022;-77
2021/12/18 12:25:41;;;;;;;13.45;8.25;;;5.00;99.90;;;;;;5035786;28;20095;-77
2021/12/18 12:28:14;;;;;;;14.88;9.07;;;4.90;99.90;;;;;;5032822;28;20511;-76
2021/12/18 12:30:44;;;;;;;13.27;9.80;;;4.80;99.90;;;;;;5035425;28;20018;-79
2021/12/18 12:33:24;;;;;;;10.70;8.48;;;4.90;99.90;;;;;;5035141;28;20033;-76
2021/12/18 12:35:58;;;;;;;15.43;9.38;;;5.10;99.90;;;;;;5035082;28;20405;-77
2021/12/18 12:38:31;;;;;;;11.68;9.02;;;5.20;99.90;;;;;;5026519;28;20021;-77
2021/12/18 12:41:22;;;;;;;11.65;8.45;;;5.30;99.90;;;;;;5034929;28;20354;-78
2021/12/18 12:43:48;;;;;;;;;;;5.50;99.90;;;;;;5031367;28;20045;-77
2021/12/18 12:46:19;;;;;;;11.10;8.77;;;5.60;99.90;;;;;;5038507;28;19912;-78
2021/12/18 12:49:00;;;;;;;13.20;9.73;;;5.30;99.90;;;;;;5037058;28;20021;-76
2021/12/18 12:51:47;;;;;;;13.45;9.70;;;5.10;99.90;;;;;;5028172;28;20022;-77
2021/12/18 12:54:47;;;;;;;12.40;8.73;;;5.10;99.90;;;;;;5035449;28;20038;-78
2021/12/18 12:57:27;;;;;;;11.13;9.52;;;5.40;99.90;;;;;;5035971;28;20026;-77
2021/12/18 12:59:59;;;;;;;12.20;9.77;;;5.60;99.90;;;;;;5035189;28;20071;-77
2021/12/18 13:02:30;;;;;;;12.30;9.40;;;5.60;99.90;;;;;;5033088;28;20121;-77
2021/12/18 13:05:01;;;;;;;15.70;10.80;;;5.10;99.90;;;;;;5034215;28;20021;-77
2021/12/18 13:07:27;;;;;;;15.63;10.77;;;5.10;99.90;;;;;;5027238;28;20032;-79
2021/12/18 13:09:53;;;;;;;13.07;9.85;;;5.10;99.90;;;;;;5032276;28;20029;-77
2021/12/18 13:12:19;;;;;;;14.05;10.65;;;5.00;99.90;;;;;;5033722;28;20037;-75
2021/12/18 13:14:46;;;;;;;13.15;10.10;;;5.00;99.90;;;;;;5034757;28;20504;-78
2021/12/18 13:17:24;;;;;;;11.30;10.05;;;5.00;99.90;;;;;;5035070;28;20073;-77
2021/12/18 13:19:53;;;;;;;13.70;9.85;;;4.90;99.90;;;;;;5031756;28;20072;-79
2021/12/18 13:22:22;;;;;;;12.55;10.20;;;5.10;99.90;;;;;;5031881;28;20052;-77
2021/12/18 13:25:11;;;;;;;12.82;9.88;;;5.50;99.90;;;;;;5033500;28;20096;-81
2021/12/18 13:27:40;;;;;;;13.02;10.35;;;5.70;99.90;;;;;;5031600;28;20052;-78
2021/12/18 13:30:20;;;;;;;12.05;9.60;;;5.40;99.90;;;;;;5031607;28;20029;-79
2021/12/18 13:32:57;;;;;;;14.57;10.82;;;5.60;99.90;;;;;;5033249;28;20029;-79
2021/12/18 13:35:25;;;;;;;12.68;10.32;;;5.90;99.90;;;;;;5032749;28;20135;-78